Time;durP1;ratioP1;P1;durP2;ratioP2;P2;SDS_P1;SDS_P2;PMS_P1;PMS_P2;Temp;Humidity;BMP_temperature;BMP_pressure;BME280_temperature;BME280_humidity;BME280_pressure;Samples;Min_cycle;Max_cycle;Signal;HPM_P1;HPM_P2
2023/09/10 00:01:25;;;;;;;;;;;;;;;-140.72;100.00;52396.94;5059085;28;19966;-68
2023/09/10 00:03:50;;;;;;;;;;;;;;;-140.72;100.00;52366.50;5072544;28;19920;-68
2023/09/10 00:06:16;;;;;;;;;;;;;;;-140.72;100.00;52362.44;5065649;28;20003;-68
2023/09/10 00:08:41;;;;;;;;;;;;;;;-140.72;100.00;52325.94;5078393;28;20006;-69
2023/09/10 00:11:06;;;;;;;;;;;;;;;-140.72;100.00;52403.03;5063293;28;19920;-69
2023/09/10 00:13:31;;;;;;;;;;;;;;;-140.72;100.00;52380.72;5073215;28;19916;-68
2023/09/10 00:15:57;;;;;;;;;;;;;;;-140.72;100.00;52382.75;5068019;28;19928;-69
2023/09/10 00:18:22;;;;;;;;;;;;;;;-140.72;100.00;52354.34;5063842;28;19917;-68
2023/09/10 00:20:49;;;;;;;;;;;;;;;-140.72;100.00;52384.78;5068446;28;20114;-68
2023/09/10 00:23:15;;;;;;;;;;;;;;;-140.72;100.00;52392.88;5073999;28;19924;-68
2023/09/10 00:25:40;;;;;;;;;;;;;;;-140.72;100.00;52378.69;5071801;28;20439;-68
2023/09/10 00:28:05;;;;;;;;;;;;;;;-140.72;100.00;52409.13;5064232;28;19921;-68
2023/09/10 00:30:31;;;;;;;;;;;;;;;-140.72;100.00;52366.50;5069174;28;20366;-68
2023/09/10 00:32:56;;;;;;;;;;;;;;;-140.72;100.00;52409.13;5070440;28;19920;-69
2023/09/10 00:35:21;;;;;;;;;;;;;;;-140.72;100.00;52405.06;5074816;28;20279;-69
2023/09/10 00:37:46;;;;;;;;;;;;;;;-140.72;100.00;52386.81;5078536;28;19924;-69
2023/09/10 00:40:12;;;;;;;;;;;;;;;-140.72;100.00;52370.56;5078104;28;19986;-69
2023/09/10 00:42:38;;;;;;;;;;;;;;;-140.72;100.00;52352.31;5070482;28;20371;-69
2023/09/10 00:45:07;;;;;;;;;;;;;;;-140.72;100.00;52380.72;5069712;28;19920;-69
2023/09/10 00:47:33;;;;;;;;;;;;;;;-140.72;100.00;52378.69;5076835;28;19928;-69
2023/09/10 00:49:58;;;;;;;;;;;;;;;-140.72;100.00;52403.03;5070645;28;19921;-69
2023/09/10 00:52:25;;;;;;;;;;;;;;;-140.72;100.00;52374.63;5076683;28;19926;-69
2023/09/10 00:54:50;;;;;;;;;;;;;;;-140.72;100.00;52411.16;5064460;28;19924;-69
2023/09/10 00:57:41;;;;;;;;;;;;;;;-140.72;100.00;52409.13;5065019;28;19921;-69
2023/09/10 01:00:10;;;;;;;;;;;;;;;-140.72;100.00;52411.16;5072037;28;19916;-69
2023/09/10 01:02:36;;;;;;;;;;;;;;;-140.72;100.00;52411.16;5079466;28;19921;-68
2023/09/10 01:05:01;;;;;;;;;;;;;;;-140.72;100.00;52407.09;5057999;28;19927;-68
2023/09/10 01:07:26;;;;;;;;;;;;;;;-140.72;100.00;52413.19;5081473;28;19920;-68
2023/09/10 01:09:52;;;;;;;;;;;;;;;-140.72;100.00;52405.06;5073114;28;19916;-68
2023/09/10 01:12:21;;;;;;;;;;;;;;;-140.72;100.00;52417.25;5073540;28;20057;-69
2023/09/10 01:14:52;;;;;;;;;;;;;;;-140.72;100.00;52423.31;5074982;28;20439;-68
2023/09/10 01:17:20;;;;;;;;;;;;;;;-140.72;100.00;52386.81;5070421;28;19968;-69
2023/09/10 01:19:45;;;;;;;;;;;;;;;-140.72;100.00;52356.38;5071339;28;20268;-68
2023/09/10 01:22:19;;;;;;;;;;;;;;;-140.72;100.00;52425.34;5083817;28;19928;-69
2023/09/10 01:24:48;;;;;;;;;;;;;;;-140.72;100.00;52417.25;5058215;28;19924;-69
2023/09/10 01:27:14;;;;;;;;;;;;;;;-140.72;100.00;52443.63;5062880;28;19974;-68
2023/09/10 01:29:40;;;;;;;;;;;;;;;-140.72;100.00;52390.84;5078426;28;20358;-69
2023/09/10 01:32:08;;;;;;;;;;;;;;;-140.72;100.00;52411.16;5066787;28;19985;-69
2023/09/10 01:34:43;;;;;;;;;;;;;;;-140.72;100.00;52398.97;5071013;28;20354;-69
2023/09/10 01:37:25;;;;;;;;;;;;;;;-140.72;100.00;52384.78;5071438;28;20275;-69
2023/09/10 01:39:53;;;;;;;;;;;;;;;-140.72;100.00;52419.28;5054550;28;19921;-69
2023/09/10 01:42:39;;;;;;;;;;;;;;;-140.72;100.00;52429.41;5061921;28;19925;-69
2023/09/10 01:45:04;;;;;;;;;;;;;;;-140.72;100.00;52419.28;5063519;28;19924;-69
2023/09/10 01:47:30;;;;;;;;;;;;;;;-140.72;100.00;52405.06;5075006;28;19916;-69
2023/09/10 01:49:55;;;;;;;;;;;;;;;-140.72;100.00;52427.38;5071425;28;19995;-68
2023/09/10 01:52:20;;;;;;;;;;;;;;;-140.72;100.00;52407.09;5065544;28;19974;-68
2023/09/10 01:54:45;;;;;;;;;;;;;;;-140.72;100.00;52409.13;5084391;28;20339;-68
2023/09/10 01:57:11;;;;;;;;;;;;;;;-140.72;100.00;52403.03;5065384;28;20003;-68
2023/09/10 01:59:36;;;;;;;;;;;;;;;-140.72;100.00;52403.03;5073501;28;20389;-68
2023/09/10 02:02:01;;;;;;;;;;;;;;;-140.72;100.00;52392.88;5074094;28;19927;-68
2023/09/10 02:04:27;;;;;;;;;;;;;;;-140.72;100.00;52470.00;5062471;28;20011;-68
2023/09/10 02:06:52;;;;;;;;;;;;;;;-140.72;100.00;52451.72;5063487;28;19921;-69
2023/09/10 02:09:17;;;;;;;;;;;;;;;-140.72;100.00;52431.44;5065856;28;19928;-69
2023/09/10 02:11:50;;;;;;;;;;;;;;;-140.72;100.00;52431.44;5056442;28;19924;-69
2023/09/10 02:14:15;;;;;;;;;;;;;;;-140.72;100.00;52425.34;5069932;28;19921;-69
2023/09/10 02:16:40;;;;;;;;;;;;;;;-140.72;100.00;52431.44;5068521;28;19921;-68
2023/09/10 02:19:16;;;;;;;;;;;;;;;-140.72;100.00;52435.50;5070142;28;19927;-69
2023/09/10 02:21:41;;;;;;;;;;;;;;;-140.72;100.00;52453.75;5066405;28;19924;-69
2023/09/10 02:24:06;;;;;;;;;;;;;;;-140.72;100.00;52425.34;5064703;28;19986;-69
2023/09/10 02:27:04;;;;;;;;;;;;;;;-140.72;100.00;52427.38;5070213;28;20011;-69
2023/09/10 02:29:29;;;;;;;;;;;;;;;-140.72;100.00;52459.84;5057921;28;19932;-69
2023/09/10 02:31:54;;;;;;;;;;;;;;;-140.72;100.00;52398.97;5074987;28;19916;-69
2023/09/10 02:34:19;;;;;;;;;;;;;;;-140.72;100.00;52427.38;5069917;28;19920;-69
2023/09/10 02:36:45;;;;;;;;;;;;;;;-140.72;100.00;52443.63;5072733;28;19923;-69
2023/09/10 02:39:10;;;;;;;;;;;;;;;-140.72;100.00;52455.78;5072899;28;19920;-69
2023/09/10 02:41:35;;;;;;;;;;;;;;;-140.72;100.00;52455.78;5073263;28;19921;-70
2023/09/10 02:44:00;;;;;;;;;;;;;;;-140.72;100.00;52431.44;5066355;28;20279;-69
2023/09/10 02:46:27;;;;;;;;;;;;;;;-140.72;100.00;52403.03;5075220;28;20504;-68
2023/09/10 02:48:53;;;;;;;;;;;;;;;-140.72;100.00;52476.09;5060907;28;19925;-68
2023/09/10 02:51:18;;;;;;;;;;;;;;;-140.72;100.00;52427.38;5067603;28;20011;-68
2023/09/10 02:53:43;;;;;;;;;;;;;;;-140.72;100.00;52451.72;5071152;28;19925;-68
2023/09/10 02:56:08;;;;;;;;;;;;;;;-140.72;100.00;52427.38;5072777;28;20386;-69
2023/09/10 02:58:34;;;;;;;;;;;;;;;-140.72;100.00;52427.38;5072318;28;19967;-68
2023/09/10 03:01:03;;;;;;;;;;;;;;;-140.72;100.00;52453.75;5055789;28;19927;-69
2023/09/10 03:03:28;;;;;;;;;;;;;;;-140.72;100.00;52457.81;5060721;28;19920;-69
2023/09/10 03:05:54;;;;;;;;;;;;;;;-140.72;100.00;52453.75;5081668;28;20314;-69
2023/09/10 03:08:19;;;;;;;;;;;;;;;-140.72;100.00;52459.84;5072685;28;19960;-69
2023/09/10 03:10:44;;;;;;;;;;;;;;;-140.72;100.00;52476.09;5073012;28;19917;-69
2023/09/10 03:13:09;;;;;;;;;;;;;;;-140.72;100.00;52463.91;5065683;28;20418;-69
2023/09/10 03:15:35;;;;;;;;;;;;;;;-140.72;100.00;52463.91;5085055;28;19939;-69
2023/09/10 03:18:00;;;;;;;;;;;;;;;-140.72;100.00;52461.88;5069852;28;19921;-69
2023/09/10 03:20:25;;;;;;;;;;;;;;;-140.72;100.00;52461.88;5083657;28;19923;-69
2023/09/10 03:22:54;;;;;;;;;;;;;;;-140.72;100.00;52435.50;5072499;28;19921;-70
2023/09/10 03:25:19;;;;;;;;;;;;;;;-140.72;100.00;52427.38;5071980;28;20260;-69
2023/09/10 03:27:45;;;;;;;;;;;;;;;-140.72;100.00;52472.03;5057222;28;19935;-69
2023/09/10 03:30:10;;;;;;;;;;;;;;;-140.72;100.00;52451.72;5070261;28;20444;-69
2023/09/10 03:32:35;;;;;;;;;;;;;;;-140.72;100.00;52425.34;5074002;28;19925;-69
2023/09/10 03:35:03;;;;;;;;;;;;;;;-140.72;100.00;52461.88;5072317;28;20008;-69
2023/09/10 03:37:28;;;;;;;;;;;;;;;-140.72;100.00;52447.69;5056188;28;19917;-69
2023/09/10 03:39:53;;;;;;;;;;;;;;;-140.72;100.00;52455.78;5069696;28;19916;-69
2023/09/10 03:42:18;;;;;;;;;;;;;;;-140.72;100.00;52463.91;5057610;28;20004;-69
2023/09/10 03:44:44;;;;;;;;;;;;;;;-140.72;100.00;52467.97;5073097;28;19917;-70
2023/09/10 03:47:09;;;;;;;;;;;;;;;-140.72;100.00;52433.47;5069844;28;19971;-69
2023/09/10 03:49:34;;;;;;;;;;;;;;;-140.72;100.00;52451.72;5072469;28;20443;-69
2023/09/10 03:51:59;;;;;;;;;;;;;;;-140.72;100.00;52431.44;5069509;28;20355;-69
2023/09/10 03:54:25;;;;;;;;;;;;;;;-140.72;100.00;52465.94;5079371;28;20313;-70
2023/09/10 03:56:57;;;;;;;;;;;;;;;-140.72;100.00;52490.28;5071203;28;19944;-69
2023/09/10 03:59:22;;;;;;;;;;;;;;;-140.72;100.00;52496.38;5060933;28;19952;-70
2023/09/10 04:04:50;;;;;;;;;;;;;;;-140.72;100.00;52472.03;5063341;28;20441;-69
2023/09/10 04:07:16;;;;;;;;;;;;;;;-140.72;100.00;52465.94;5071940;28;19920;-69
2023/09/10 04:09:42;;;;;;;;;;;;;;;-140.72;100.00;52470.00;5071149;28;19982;-69
2023/09/10 04:12:07;;;;;;;;;;;;;;;-140.72;100.00;52457.81;5062250;28;19917;-69
2023/09/10 04:14:32;;;;;;;;;;;;;;;-140.72;100.00;52459.84;5069078;28;20406;-69
2023/09/10 04:16:57;;;;;;;;;;;;;;;-140.72;100.00;52419.28;5061618;28;19925;-69
2023/09/10 04:19:24;;;;;;;;;;;;;;;-140.72;100.00;52472.03;5084548;28;19924;-69
2023/09/10 04:21:49;;;;;;;;;;;;;;;-140.72;100.00;52484.19;5072908;28;19924;-69
2023/09/10 04:24:14;;;;;;;;;;;;;;;-140.72;100.00;52461.88;5071978;28;19936;-69
2023/09/10 04:26:40;;;;;;;;;;;;;;;-140.72;100.00;52472.03;5072468;28;20018;-69
2023/09/10 04:29:05;;;;;;;;;;;;;;;-140.72;100.00;52480.16;5064150;28;19969;-69
2023/09/10 04:31:35;;;;;;;;;;;;;;;-140.72;100.00;52478.13;5081955;28;19915;-69
2023/09/10 04:34:00;;;;;;;;;;;;;;;-140.72;100.00;52455.78;5076602;28;20378;-69
2023/09/10 04:36:25;;;;;;;;;;;;;;;-140.72;100.00;52492.31;5073126;28;20019;-69
2023/09/10 04:38:52;;;;;;;;;;;;;;;-140.72;100.00;52472.03;5059167;28;20042;-69
2023/09/10 04:41:18;;;;;;;;;;;;;;;-140.72;100.00;52461.88;5080098;28;19970;-69
2023/09/10 04:43:43;;;;;;;;;;;;;;;-140.72;100.00;52443.63;5072064;28;19932;-69
2023/09/10 04:46:08;;;;;;;;;;;;;;;-140.72;100.00;52445.66;5072379;28;19924;-70
2023/09/10 04:48:33;;;;;;;;;;;;;;;-140.72;100.00;52455.78;5071196;28;19928;-69
2023/09/10 04:50:58;;;;;;;;;;;;;;;-140.72;100.00;52455.78;5069280;28;19928;-80
2023/09/10 04:53:24;;;;;;;;;;;;;;;-140.72;100.00;52472.03;5108615;28;19921;-78
2023/09/10 04:55:53;;;;;;;;;;;;;;;-140.72;100.00;52457.81;5069589;28;19921;-78
2023/09/10 04:58:19;;;;;;;;;;;;;;;-140.72;100.00;52455.78;5076359;28;20368;-81
2023/09/10 05:00:44;;;;;;;;;;;;;;;-140.72;100.00;52478.13;5074487;28;19964;-76
2023/09/10 05:03:17;;;;;;;;;;;;;;;-140.72;100.00;52459.84;5066772;28;20020;-77
2023/09/10 05:05:42;;;;;;;;;;;;;;;-140.72;100.00;52435.50;5083426;28;19955;-75
2023/09/10 05:08:17;;;;;;;;;;;;;;;-140.72;100.00;52472.03;5065688;28;19923;-77
2023/09/10 05:10:46;;;;;;;;;;;;;;;-140.72;100.00;52463.91;5068955;28;19921;-77
2023/09/10 05:13:11;;;;;;;;;;;;;;;-140.72;100.00;52476.09;5072344;28;19960;-78
2023/09/10 05:15:36;;;;;;;;;;;;;;;-140.72;100.00;52484.19;5073201;28;20393;-78
2023/09/10 05:18:01;;;;;;;;;;;;;;;-140.72;100.00;52467.97;5072724;28;19920;-78
2023/09/10 05:20:27;;;;;;;;;;;;;;;-140.72;100.00;52472.03;5066959;28;19928;-78
2023/09/10 05:22:52;;;;;;;;;;;;;;;-140.72;100.00;52488.25;5067209;28;19921;-74
2023/09/10 05:25:17;;;;;;;;;;;;;;;-140.72;100.00;52500.44;5074284;28;19964;-76
2023/09/10 05:27:42;;;;;;;;;;;;;;;-140.72;100.00;52508.56;5080297;28;19917;-77
2023/09/10 05:30:08;;;;;;;;;;;;;;;-140.72;100.00;52492.31;5085326;28;19920;-77
2023/09/10 05:32:33;;;;;;;;;;;;;;;-140.72;100.00;52472.03;5075873;28;19928;-78
2023/09/10 05:35:05;;;;;;;;;;;;;;;-140.72;100.00;52494.34;5079956;28;20361;-72
2023/09/10 05:37:30;;;;;;;;;;;;;;;-140.72;100.00;52490.28;5074717;28;20019;-70
2023/09/10 05:39:55;;;;;;;;;;;;;;;-140.72;100.00;52472.03;5059514;28;19963;-72
2023/09/10 05:42:22;;;;;;;;;;;;;;;-140.72;100.00;52461.88;5075122;28;20015;-73
2023/09/10 05:44:52;;;;;;;;;;;;;;;-140.72;100.00;52445.66;5075664;28;19917;-71
2023/09/10 05:47:22;;;;;;;;;;;;;;;-140.72;100.00;52488.25;5058509;28;19921;-70
2023/09/10 05:49:47;;;;;;;;;;;;;;;-140.72;100.00;52463.91;5068973;28;20015;-71
2023/09/10 05:52:23;;;;;;;;;;;;;;;-140.72;100.00;52476.09;5072704;28;19968;-70
2023/09/10 05:54:48;;;;;;;;;;;;;;;-140.72;100.00;52496.38;5079424;28;19917;-70
2023/09/10 05:57:13;;;;;;;;;;;;;;;-140.72;100.00;52451.72;5082898;28;20282;-70
2023/09/10 05:59:38;;;;;;;;;;;;;;;-140.72;100.00;52463.91;5071116;28;19917;-71
2023/09/10 06:02:04;;;;;;;;;;;;;;;-140.72;100.00;52455.78;5060716;28;19920;-70
2023/09/10 06:04:31;;;;;;;;;;;;;;;-140.72;100.00;52512.59;5077852;28;19916;-70
2023/09/10 06:06:56;;;;;;;;;;;;;;;-140.72;100.00;52467.97;5081078;28;19954;-70
2023/09/10 06:09:22;;;;;;;;;;;;;;;-140.72;100.00;52459.84;5069654;28;20002;-70
2023/09/10 06:11:48;;;;;;;;;;;;;;;-140.72;100.00;52451.72;5066704;28;19928;-70
2023/09/10 06:14:14;;;;;;;;;;;;;;;-140.72;100.00;52425.34;5073251;28;20333;-70
2023/09/10 06:16:44;;;;;;;;;;;;;;;-140.72;100.00;52488.25;5061037;28;19916;-71
2023/09/10 06:19:09;;;;;;;;;;;;;;;-140.72;100.00;52472.03;5073673;28;19925;-71
2023/09/10 06:21:35;;;;;;;;;;;;;;;-140.72;100.00;52470.00;5087254;28;19917;-71
2023/09/10 06:24:00;;;;;;;;;;;;;;;-140.72;100.00;52429.41;5074063;28;19963;-71
2023/09/10 06:26:25;;;;;;;;;;;;;;;-140.72;100.00;52472.03;5074529;28;19927;-71
2023/09/10 06:28:50;;;;;;;;;;;;;;;-140.72;100.00;52415.22;5074498;28;20363;-69
2023/09/10 06:31:16;;;;;;;;;;;;;;;-140.72;100.00;52459.84;5072756;28;19959;-69
2023/09/10 06:33:41;;;;;;;;;;;;;;;-140.72;100.00;52504.50;5061062;28;19921;-70
2023/09/10 06:36:43;;;;;;;;;;;;;;;-140.72;100.00;52415.22;5071993;28;19924;-70
2023/09/10 06:39:08;;;;;;;;;;;;;;;-140.72;100.00;52431.44;5075751;28;19967;-70
2023/09/10 06:41:34;;;;;;;;;;;;;;;-140.72;100.00;52470.00;5070562;28;19948;-70
2023/09/10 06:43:59;;;;;;;;;;;;;;;-140.72;100.00;52488.25;5061945;28;19924;-70
2023/09/10 06:46:24;;;;;;;;;;;;;;;-140.72;100.00;52435.50;5070469;28;19920;-70
2023/09/10 06:48:49;;;;;;;;;;;;;;;-140.72;100.00;52447.69;5066080;28;19921;-71
2023/09/10 06:51:15;;;;;;;;;;;;;;;-140.72;100.00;52415.22;5073397;28;19946;-69
2023/09/10 06:53:40;;;;;;;;;;;;;;;-140.72;100.00;52421.28;5079129;28;19969;-69
2023/09/10 06:56:05;;;;;;;;;;;;;;;-140.72;100.00;52417.25;5074498;28;19920;-70
2023/09/10 06:58:30;;;;;;;;;;;;;;;-140.72;100.00;52459.84;5066319;28;20295;-70
2023/09/10 07:01:25;;;;;;;;;;;;;;;-140.72;100.00;52384.78;5064925;28;20011;-71
2023/09/10 07:03:51;;;;;;;;;;;;;;;-140.72;100.00;52435.50;5068298;28;19917;-70
2023/09/10 07:06:36;;;;;;;;;;;;;;;-140.72;100.00;52392.88;5066354;28;20417;-73
2023/09/10 07:09:01;;;;;;;;;;;;;;;-140.72;100.00;52392.88;5073217;28;19970;-71
2023/09/10 07:11:32;;;;;;;;;;;;;;;-140.72;100.00;52445.66;5073833;28;19917;-70
2023/09/10 07:13:57;;;;;;;;;;;;;;;-140.72;100.00;52425.34;5068829;28;19928;-71
2023/09/10 07:16:23;;;;;;;;;;;;;;;-140.72;100.00;52411.16;5070797;28;19924;-76
2023/09/10 07:18:52;;;;;;;;;;;;;;;-140.72;100.00;52423.31;5070257;28;19924;-73
2023/09/10 07:21:17;;;;;;;;;;;;;;;-140.72;100.00;52392.88;5072040;28;20015;-76
2023/09/10 07:23:50;;;;;;;;;;;;;;;-140.72;100.00;52382.75;5070111;28;20003;-76
2023/09/10 07:26:15;;;;;;;;;;;;;;;-140.72;100.00;52419.28;5080578;28;20021;-76
2023/09/10 07:28:41;;;;;;;;;;;;;;;-140.72;100.00;52388.84;5073386;28;20015;-76
2023/09/10 07:31:07;;;;;;;;;;;;;;;-140.72;100.00;52374.63;5069064;28;19917;-75
2023/09/10 07:33:32;;;;;;;;;;;;;;;-140.72;100.00;52392.88;5068311;28;19971;-73
2023/09/10 07:35:58;;;;;;;;;;;;;;;-140.72;100.00;52368.53;5060934;28;19932;-74
2023/09/10 07:38:23;;;;;;;;;;;;;;;-140.72;100.00;52411.16;5077422;28;19928;-73
2023/09/10 07:40:49;;;;;;;;;;;;;;;-140.72;100.00;52374.63;5072219;28;19924;-74
2023/09/10 07:43:15;;;;;;;;;;;;;;;-140.72;100.00;52403.03;5070610;28;19924;-75
2023/09/10 07:45:40;;;;;;;;;;;;;;;-140.72;100.00;52390.84;5073509;28;19920;-75
2023/09/10 07:48:06;;;;;;;;;;;;;;;-140.72;100.00;52382.75;5072758;28;20417;-76
2023/09/10 07:50:31;;;;;;;;;;;;;;;-140.72;100.00;52340.13;5062621;28;19921;-76
2023/09/10 07:53:02;;;;;;;;;;;;;;;-140.72;100.00;52346.22;5059804;28;20046;-74
2023/09/10 07:55:27;;;;;;;;;;;;;;;-140.72;100.00;52376.66;5092932;28;20386;-75
2023/09/10 07:57:52;;;;;;;;;;;;;;;-140.72;100.00;52358.41;5076696;28;19924;-74
2023/09/10 08:00:17;;;;;;;;;;;;;;;-140.72;100.00;52360.44;5070427;28;19917;-74
2023/09/10 08:02:43;;;;;;;;;;;;;;;-140.72;100.00;52354.34;5075400;28;19921;-75
2023/09/10 08:05:08;;;;;;;;;;;;;;;-140.72;100.00;52334.03;5067041;28;19928;-74
2023/09/10 08:07:34;;;;;;;;;;;;;;;-140.72;100.00;52372.59;5062803;28;19921;-75
2023/09/10 08:09:59;;;;;;;;;;;;;;;-140.72;100.00;52346.22;5072835;28;19978;-74
2023/09/10 08:12:24;;;;;;;;;;;;;;;-140.72;100.00;52368.53;5074461;28;20295;-74
2023/09/10 08:14:49;;;;;;;;;;;;;;;-140.72;100.00;52350.28;5069277;28;20359;-74
2023/09/10 08:17:15;;;;;;;;;;;;;;;-140.72;100.00;52313.75;5060880;28;19921;-74
2023/09/10 08:19:40;;;;;;;;;;;;;;;-140.72;100.00;52350.28;5071482;28;20018;-74
2023/09/10 08:22:05;;;;;;;;;;;;;;;-140.72;100.00;52374.63;5065144;28;19968;-74
2023/09/10 08:24:30;;;;;;;;;;;;;;;-140.72;100.00;52338.09;5070952;28;19965;-75
2023/09/10 08:26:57;;;;;;;;;;;;;;;-140.72;100.00;52356.38;5061120;28;19917;-74
2023/09/10 08:29:22;;;;;;;;;;;;;;;-140.72;100.00;52317.81;5061826;28;19993;-74
2023/09/10 08:31:48;;;;;;;;;;;;;;;-140.72;100.00;52334.03;5061326;28;20386;-75
2023/09/10 08:34:24;;;;;;;;;;;;;;;-140.72;100.00;52327.97;5065606;28;19979;-73
2023/09/10 08:36:56;;;;;;;;;;;;;;;-140.72;100.00;52293.47;5082400;28;19927;-73
2023/09/10 08:39:21;;;;;;;;;;;;;;;-140.72;100.00;52228.53;5063254;28;19955;-74
2023/09/10 08:42:07;;;;;;;;;;;;;;;-140.72;100.00;52293.47;5078759;28;19916;-74
2023/09/10 08:44:33;;;;;;;;;;;;;;;-140.72;100.00;52279.25;5067153;28;19951;-75
2023/09/10 08:47:00;;;;;;;;;;;;;;;-140.72;100.00;52275.19;5068272;28;20379;-74
2023/09/10 08:49:26;;;;;;;;;;;;;;;-140.72;100.00;52252.88;5063870;28;19924;-75
2023/09/10 08:51:56;;;;;;;;;;;;;;;-140.72;100.00;52273.19;5077748;28;19951;-76
2023/09/10 08:54:22;;;;;;;;;;;;;;;-140.72;100.00;52242.75;5073851;28;19972;-75
2023/09/10 08:56:51;;;;;;;;;;;;;;;-140.72;100.00;52224.47;5068415;28;19920;-75
2023/09/10 08:59:16;;;;;;;;;;;;;;;-140.72;100.00;52222.44;5084944;28;19920;-75
2023/09/10 09:01:47;;;;;;;;;;;;;;;-140.72;100.00;52171.72;5062274;28;19943;-73
2023/09/10 09:04:12;;;;;;;;;;;;;;;-140.72;100.00;52141.28;5074550;28;20129;-73
2023/09/10 09:06:40;;;;;;;;;;;;;;;-140.72;100.00;52131.16;5073700;28;20037;-73
2023/09/10 09:09:06;;;;;;;;;;;;;;;-140.72;100.00;52121.00;5081990;28;19998;-72
2023/09/10 09:11:41;;;;;;;;;;;;;;;-140.72;100.00;52104.75;5066368;28;20032;-73
2023/09/10 09:14:08;;;;;;;;;;;;;;;-140.72;100.00;52106.78;5075723;28;19917;-74
2023/09/10 09:16:34;;;;;;;;;;;;;;;-140.72;100.00;52135.19;5073811;28;20294;-74
2023/09/10 09:19:01;;;;;;;;;;;;;;;-140.72;100.00;52049.97;5084820;28;19963;-78
2023/09/10 09:21:38;;;;;;;;;;;;;;;-140.72;100.00;52074.34;5058996;28;19924;-74
2023/09/10 09:27:07;;;;;;;;;;;;;;;-140.72;100.00;52039.84;5074312;28;20026;-75
2023/09/10 09:29:33;;;;;;;;;;;;;;;-140.72;100.00;52041.88;5075023;28;19921;-73
2023/09/10 09:31:58;;;;;;;;;;;;;;;-140.72;100.00;52039.84;5081515;28;19924;-73
2023/09/10 09:34:23;;;;;;;;;;;;;;;-140.72;100.00;52076.34;5075617;28;19921;-72
2023/09/10 09:36:50;;;;;;;;;;;;;;;-140.72;100.00;52005.34;5069897;28;19921;-72
2023/09/10 09:39:17;;;;;;;;;;;;;;;-140.72;100.00;51985.06;5084688;28;19920;-71
2023/09/10 09:41:45;;;;;;;;;;;;;;;-140.72;100.00;51976.94;5066009;28;19921;-72
2023/09/10 09:44:11;;;;;;;;;;;;;;;-140.72;100.00;51995.19;5064767;28;19924;-72
2023/09/10 09:46:37;;;;;;;;;;;;;;;-140.72;100.00;51950.56;5063259;28;19970;-72
2023/09/10 09:49:02;;;;;;;;;;;;;;;-140.72;100.00;51944.47;5071330;28;19920;-73
2023/09/10 09:51:28;;;;;;;;;;;;;;;-140.72;100.00;51960.72;5069904;28;19920;-72
2023/09/10 09:53:54;;;;;;;;;;;;;;;-140.72;100.00;51997.22;5075758;28;19924;-75
2023/09/10 09:56:21;;;;;;;;;;;;;;;-140.72;100.00;51930.28;5065711;28;19917;-72
2023/09/10 09:58:46;;;;;;;;;;;;;;;-140.72;100.00;51956.66;5067145;28;19921;-73
2023/09/10 10:01:11;;;;;;;;;;;;;;;-140.72;100.00;51950.56;5070605;28;19982;-77
2023/09/10 10:03:37;;;;;;;;;;;;;;;-140.72;100.00;51875.50;5069079;28;19928;-73
2023/09/10 10:06:03;;;;;;;;;;;;;;;-140.72;100.00;51952.59;5067737;28;19921;-73
2023/09/10 10:08:29;;;;;;;;;;;;;;;-140.72;100.00;51944.47;5070283;28;19932;-74
2023/09/10 10:10:55;;;;;;;;;;;;;;;-140.72;100.00;51907.97;5069601;28;20311;-75
2023/09/10 10:13:23;;;;;;;;;;;;;;;-140.72;85.86;51910.00;5066016;28;19947;-76
2023/09/10 10:15:50;;;;;;;;;;;;;;;-140.72;100.00;51964.78;5061771;28;19927;-76
2023/09/10 10:18:16;;;;;;;;;;;;;;;-140.72;100.00;51940.41;5070983;28;21076;-77
2023/09/10 10:20:46;;;;;;;;;;;;;;;-140.72;100.00;51964.78;5095185;28;19916;-77
2023/09/10 10:23:14;;;;;;;;;;;;;;;-140.72;100.00;51910.00;5082700;28;19917;-76
2023/09/10 10:25:43;;;;;;;;;;;;;;;-140.72;80.68;51903.91;5074239;28;19943;-78
2023/09/10 10:28:09;;;;;;;;;;;;;;;-140.72;47.70;51903.91;5078573;28;19921;-77
2023/09/10 10:30:52;;;;;;;;;;;;;;;-140.72;56.25;51897.81;5072580;28;19916;-77
2023/09/10 10:33:20;;;;;;;;;;;;;;;-140.72;44.80;51836.94;5079828;28;19925;-76
2023/09/10 10:35:56;;;;;;;;;;;;;;;-140.72;12.92;51772.03;5077310;28;19920;-78
2023/09/10 10:38:22;;;;;;;;;;;;;;;-140.72;0.00;51784.19;5063683;28;20317;-77
2023/09/10 10:40:49;;;;;;;;;;;;;;;-140.72;0.00;51765.94;5078668;28;20010;-79
2023/09/10 10:43:29;;;;;;;;;;;;;;;-140.72;0.00;51745.66;5075356;28;19920;-77
2023/09/10 10:46:00;;;;;;;;;;;;;;;-140.72;0.00;51822.75;5072855;28;19928;-80
2023/09/10 10:48:30;;;;;;;;;;;;;;;-140.72;0.00;51843.03;5063598;28;19921;-74
2023/09/10 10:50:56;;;;;;;;;;;;;;;-140.72;0.00;51786.22;5063706;28;19920;-73
2023/09/10 10:53:23;;;;;;;;;;;;;;;-140.72;0.00;51749.72;5063652;28;19916;-74
2023/09/10 10:55:53;;;;;;;;;;;;;;;-140.72;0.00;51753.78;5067033;28;20302;-74
2023/09/10 10:58:23;;;;;;;;;;;;;;;-140.72;0.00;51719.28;5075903;28;20007;-74
2023/09/10 11:00:50;;;;;;;;;;;;;;;-140.72;0.00;51652.34;5077608;28;20400;-77
2023/09/10 11:03:20;;;;;;;;;;;;;;;-140.72;0.00;51690.88;5073077;28;19927;-75
2023/09/10 11:06:04;;;;;;;;;;;;;;;-140.72;0.00;51701.03;5075204;28;20341;-74
2023/09/10 11:08:32;;;;;;;;;;;;;;;-140.72;0.00;51638.13;5088571;28;19944;-76
2023/09/10 11:10:58;;;;;;;;;;;;;;;-140.72;0.00;51619.88;5071353;28;19928;-73
2023/09/10 11:13:24;;;;;;;;;;;;;;;-140.72;0.00;51638.13;5072501;28;19920;-75
2023/09/10 11:16:05;;;;;;;;;;;;;;;-140.72;0.00;51611.75;5066105;28;19974;-75
2023/09/10 11:18:41;;;;;;;;;;;;;;;-140.72;0.00;51597.56;5071824;28;20019;-76
2023/09/10 11:21:07;;;;;;;;;;;;;;;-140.72;0.00;51615.81;5072557;28;19927;-76
2023/09/10 11:23:33;;;;;;;;;;;;;;;-140.72;0.00;51587.41;5073410;28;19924;-74
2023/09/10 11:26:22;;;;;;;;;;;;;;;-140.72;0.00;51559.00;5069538;28;20347;-75
2023/09/10 11:28:47;;;;;;;;;;;;;;;-140.72;0.00;51526.56;5063711;28;19916;-76
2023/09/10 11:31:31;;;;;;;;;;;;;;;-140.72;0.00;51581.31;5082161;28;20236;-77
2023/09/10 11:33:58;;;;;;;;;;;;;;;-140.72;0.00;51544.81;5090720;28;19923;-73
2023/09/10 11:36:24;;;;;;;;;;;;;;;-140.72;0.00;51534.66;5065030;28;19966;-73
2023/09/10 11:41:53;;;;;;;;;;;;;;;-140.72;0.00;51530.59;5071645;28;19931;-73
2023/09/10 11:44:19;;;;;;;;;;;;;;;-140.72;0.00;51563.06;5063801;28;20371;-71
2023/09/10 11:49:47;;;;;;;;;;;;;;;-140.72;0.00;51479.91;5065190;28;19928;-71
2023/09/10 11:52:12;;;;;;;;;;;;;;;-140.72;0.00;51492.06;5072581;28;19916;-72
2023/09/10 11:54:46;;;;;;;;;;;;;;;-140.72;0.00;51546.84;5069061;28;19920;-69
2023/09/10 11:57:12;;;;;;;;;;;;;;;-140.72;0.00;51473.81;5068201;28;19950;-70
2023/09/10 11:59:37;;;;;;;;;;;;;;;-140.72;0.00;51425.13;5078098;28;20278;-70
2023/09/10 12:02:08;;;;;;;;;;;;;;;-140.72;0.00;51467.72;5062012;28;20023;-70
2023/09/10 12:04:34;;;;;;;;;;;;;;;-140.72;0.00;51410.91;5066638;28;19920;-69
2023/09/10 12:07:02;;;;;;;;;;;;;;;-140.72;0.00;51408.88;5084727;28;20003;-69
2023/09/10 12:09:31;;;;;;;;;;;;;;;-140.72;0.00;51384.53;5063620;28;19939;-69
2023/09/10 12:11:57;;;;;;;;;;;;;;;-140.72;0.00;51386.56;5066201;28;19999;-70
2023/09/10 12:14:24;;;;;;;;;;;;;;;-140.72;0.00;51384.53;5066053;28;19921;-69
2023/09/10 12:16:50;;;;;;;;;;;;;;;-140.72;0.00;51376.44;5068100;28;19920;-70
2023/09/10 12:19:15;;;;;;;;;;;;;;;-140.72;0.00;51372.38;5058577;28;20390;-71
2023/09/10 12:21:41;;;;;;;;;;;;;;;-140.72;0.00;51382.53;5063534;28;19917;-70
2023/09/10 12:24:06;;;;;;;;;;;;;;;-140.72;0.00;51372.38;5070421;28;19920;-69
2023/09/10 12:26:32;;;;;;;;;;;;;;;-140.72;0.00;51419.03;5075276;28;19954;-69
2023/09/10 12:28:58;;;;;;;;;;;;;;;-140.72;0.00;51386.56;5067611;28;19916;-69
2023/09/10 12:31:24;;;;;;;;;;;;;;;-140.72;0.00;51380.50;5075668;28;19927;-69
2023/09/10 12:33:50;;;;;;;;;;;;;;;-140.72;0.00;51380.50;5076558;28;19917;-70